CYYF

Penticton Airport

Penticton, , Canada
METAR CYYF 212100Z 36002KT 15SM TS VCSH BKN100CB BKN160 27/15 A2985 RMK CB6AC1 LTG SW-NE SLP105 DENSITY ALT 2900FT
Observed Flight Rules
Jun-21 @ 21:00 UTC (an hour ago) Visual Flight Rules
Wind Visibility Clouds Conditions
360° at 2 knots 15 miles
  • Broken at 10,000' AGL
  • Broken at 16,000' AGL
  • Thunderstorm
Temperatures Readings
Current 27°C / 81°F
Dewpoint 15°C / 59°F
Humidity 48%
Altimeter 29.85" Hg
Pressure 1010.5 hPa
Elevation 344
METAR CYYF 212100Z 36002KT 15SM TS VCSH BKN100CB BKN160 27/15 A2985 RMK CB6AC1 LTG SW-NE SLP105 DENSITY ALT 2900FT
Observed Flight Rules
Jun-21 @ 21:00 UTC
(an hour ago)
VFR
Wind Visibility
360° at 2 knots 15 miles
Clouds
  • Broken at 10,000' AGL
  • Broken at 16,000' AGL
Conditions
  • Thunderstorm
Temperature Dewpoint
27°C / 81°F 15°C / 59°F
Humidity Altimeter Pressure
48% 29.85" Hg 1010.5 hPa